Time;durP1;ratioP1;P1;durP2;ratioP2;P2;SDS_P1;SDS_P2;PMS_P1;PMS_P2;Temp;Humidity;BMP_temperature;BMP_pressure;BME280_temperature;BME280_humidity;BME280_pressure;Samples;Min_cycle;Max_cycle;Signal;HPM_P1;HPM_P2
2021/04/04 00:00:51;;;;;;;17.63;13.35;;;;;;;11.21;100.00;100875.59;5018635;28;20024;-74
2021/04/04 00:03:37;;;;;;;20.30;14.18;;;;;;;10.99;100.00;100873.38;5018218;28;20116;-75
2021/04/04 00:06:23;;;;;;;21.20;14.15;;;;;;;10.91;100.00;100880.50;5032505;28;20025;-75
2021/04/04 00:09:08;;;;;;;19.33;14.13;;;;;;;10.99;100.00;100889.97;5018360;28;20040;-76
2021/04/04 00:11:54;;;;;;;19.50;14.48;;;;;;;11.00;100.00;100886.47;5033575;28;20025;-73
2021/04/04 00:14:40;;;;;;;17.58;13.35;;;;;;;11.02;100.00;100889.06;5033215;28;20021;-75
2021/04/04 00:17:26;;;;;;;17.58;12.63;;;;;;;10.97;100.00;100894.38;5032678;28;20053;-75
2021/04/04 00:20:15;;;;;;;17.73;12.85;;;;;;;10.64;100.00;100897.50;5032983;28;20025;-74
2021/04/04 00:23:01;;;;;;;19.35;13.82;;;;;;;10.38;100.00;100899.66;5033601;28;20032;-75
2021/04/04 00:25:47;;;;;;;18.23;13.63;;;;;;;10.58;100.00;100894.13;5035774;28;20036;-75
2021/04/04 00:28:33;;;;;;;14.90;11.65;;;;;;;10.55;100.00;100895.03;5021954;28;20116;-75
2021/04/04 00:31:18;;;;;;;18.45;12.52;;;;;;;10.58;100.00;100904.59;5022148;28;20026;-76
2021/04/04 00:34:05;;;;;;;17.13;11.90;;;;;;;10.52;100.00;100894.22;5036326;28;20052;-76
2021/04/04 00:36:52;;;;;;;17.67;12.05;;;;;;;10.50;100.00;100899.50;5037013;28;20094;-74
2021/04/04 00:39:38;;;;;;;15.52;11.65;;;;;;;10.49;100.00;100896.88;5036906;28;20061;-75
2021/04/04 00:42:24;;;;;;;14.40;10.45;;;;;;;10.46;100.00;100895.19;5036398;28;20094;-74
2021/04/04 00:45:12;;;;;;;14.32;10.80;;;;;;;10.37;100.00;100897.91;5036899;28;20104;-75
2021/04/04 00:47:58;;;;;;;16.48;10.25;;;;;;;10.49;100.00;100902.97;5021536;28;20029;-75
2021/04/04 00:50:44;;;;;;;13.18;10.43;;;;;;;10.30;100.00;100893.66;5036791;28;20389;-75
2021/04/04 00:53:30;;;;;;;14.05;10.85;;;;;;;10.21;100.00;100901.66;5036475;28;20076;-75
2021/04/04 00:56:17;;;;;;;13.95;9.95;;;;;;;10.55;100.00;100897.66;5036186;28;20110;-75
2021/04/04 00:59:03;;;;;;;13.90;10.73;;;;;;;10.14;100.00;100887.75;5036337;28;20057;-74
2021/04/04 01:01:49;;;;;;;13.65;10.50;;;;;;;10.17;100.00;100888.59;5035126;28;20053;-75
2021/04/04 01:04:38;;;;;;;15.30;10.93;;;;;;;10.32;100.00;100886.63;5035698;28;20037;-74
2021/04/04 01:07:24;;;;;;;15.07;11.07;;;;;;;10.20;100.00;100888.56;5035362;28;20033;-75
2021/04/04 01:10:11;;;;;;;14.80;10.98;;;;;;;10.29;100.00;100884.03;5036105;28;20409;-75
2021/04/04 01:13:15;;;;;;;14.57;11.25;;;;;;;10.26;100.00;100889.34;5035198;28;20099;-74
2021/04/04 01:16:08;;;;;;;14.52;11.30;;;;;;;10.42;100.00;100888.25;5036008;28;20033;-75
2021/04/04 01:19:13;;;;;;;13.95;10.73;;;;;;;10.37;100.00;100897.06;5035581;28;20028;-75
2021/04/04 01:22:33;;;;;;;14.63;10.18;;;;;;;10.28;100.00;100886.72;5021621;28;20470;-75
2021/04/04 01:25:38;;;;;;;14.45;11.13;;;;;;;10.39;100.00;100890.03;5020565;28;20458;-75
2021/04/04 01:28:30;;;;;;;15.98;11.05;;;;;;;10.32;100.00;100893.63;5035053;28;20045;-75
2021/04/04 01:31:17;;;;;;;16.48;12.02;;;;;;;10.55;100.00;100883.69;5035447;28;20091;-74
2021/04/04 01:34:05;;;;;;;15.55;11.38;;;;;;;10.34;100.00;100895.34;5035229;28;20095;-75
2021/04/04 01:36:54;;;;;;;14.35;11.15;;;;;;;10.53;100.00;100890.72;5034555;28;20346;-74
2021/04/04 01:39:58;;;;;;;13.82;10.63;;;;;;;10.46;100.00;100889.94;5034919;28;20076;-75
2021/04/04 01:42:45;;;;;;;14.43;10.60;;;;;;;10.52;100.00;100907.31;5034481;28;20421;-74
2021/04/04 01:45:32;;;;;;;14.88;10.35;;;;;;;10.53;100.00;100909.91;5020374;28;20025;-74
2021/04/04 01:48:19;;;;;;;15.23;9.98;;;;;;;10.49;100.00;100908.22;5020772;28;20121;-75
2021/04/04 01:51:05;;;;;;;12.85;9.10;;;;;;;10.68;100.00;100909.69;5034553;28;20031;-76
2021/04/04 01:53:52;;;;;;;14.40;10.48;;;;;;;10.47;100.00;100903.88;5035274;28;20125;-75
2021/04/04 01:56:39;;;;;;;13.80;10.05;;;;;;;10.40;100.00;100910.13;5021095;28;20108;-74
2021/04/04 01:59:27;;;;;;;13.90;9.77;;;;;;;10.04;100.00;100906.16;5035183;28;20021;-74
2021/04/04 02:02:13;;;;;;;15.15;10.65;;;;;;;9.87;100.00;100909.00;5034687;28;20106;-74
2021/04/04 02:05:01;;;;;;;13.50;9.93;;;;;;;10.14;100.00;100913.06;5035346;28;20365;-74
2021/04/04 02:07:50;;;;;;;14.93;9.60;;;;;;;10.02;100.00;100911.41;5033795;28;20033;-75
2021/04/04 02:10:38;;;;;;;14.77;10.77;;;;;;;10.01;100.00;100914.94;5020397;28;20465;-74
2021/04/04 02:13:26;;;;;;;13.88;10.07;;;;;;;10.17;100.00;100917.41;5019390;28;20405;-74
2021/04/04 02:16:13;;;;;;;12.85;9.80;;;;;;;10.33;100.00;100927.63;5034749;28;20397;-74
2021/04/04 02:18:59;;;;;;;14.00;10.30;;;;;;;10.00;100.00;100925.41;5035113;28;20442;-74
2021/04/04 02:21:49;;;;;;;15.38;10.68;;;;;;;9.98;100.00;100922.81;5034178;28;20025;-75
2021/04/04 02:24:35;;;;;;;14.52;10.57;;;;;;;10.12;100.00;100925.31;5034657;28;20025;-75
2021/04/04 02:27:21;;;;;;;16.42;11.05;;;;;;;9.95;100.00;100920.25;5034732;28;20411;-75
2021/04/04 02:30:08;;;;;;;13.75;10.25;;;;;;;10.41;100.00;100924.94;5034866;28;20347;-75
2021/04/04 02:33:02;;;;;;;14.25;10.77;;;;;;;9.98;100.00;100930.66;5034506;28;20470;-75
2021/04/04 02:35:52;;;;;;;14.80;10.73;;;;;;;9.89;100.00;100932.53;5020681;28;20033;-75
2021/04/04 02:38:42;;;;;;;15.82;11.00;;;;;;;9.95;100.00;100930.72;5033152;28;20072;-75
2021/04/04 02:41:30;;;;;;;15.68;10.80;;;;;;;10.29;100.00;100920.72;5019785;28;20083;-75
2021/04/04 02:44:16;;;;;;;14.23;10.18;;;;;;;9.98;100.00;100930.66;5034226;28;20458;-76
2021/04/04 02:47:07;;;;;;;14.57;10.30;;;;;;;9.88;100.00;100928.16;5033600;28;20123;-75
2021/04/04 02:49:54;;;;;;;13.50;9.80;;;;;;;9.62;100.00;100925.81;5033410;28;20482;-75
2021/04/04 02:52:43;;;;;;;14.07;9.82;;;;;;;9.69;100.00;100924.03;5034082;28;20030;-75
2021/04/04 02:55:33;;;;;;;12.55;8.77;;;;;;;9.95;100.00;100924.59;5034544;28;20025;-74
2021/04/04 02:58:21;;;;;;;12.82;9.40;;;;;;;10.15;100.00;100927.88;5034649;28;20212;-75
2021/04/04 03:01:09;;;;;;;12.18;9.10;;;;;;;10.26;100.00;100926.00;5033287;28;20064;-75
2021/04/04 03:03:55;;;;;;;14.20;9.40;;;;;;;9.86;100.00;100928.19;5034456;28;20030;-75
2021/04/04 03:06:44;;;;;;;13.45;9.30;;;;;;;10.07;100.00;100920.13;5033962;28;20425;-75
2021/04/04 03:09:32;;;;;;;11.88;8.98;;;;;;;9.98;100.00;100921.97;5019198;28;20033;-74
2021/04/04 03:12:20;;;;;;;12.35;9.13;;;;;;;10.24;100.00;100919.91;5034509;28;20512;-74
2021/04/04 03:15:12;;;;;;;13.15;9.00;;;;;;;10.36;100.00;100911.88;5019867;28;20362;-75
2021/04/04 03:17:58;;;;;;;12.30;8.95;;;;;;;9.94;100.00;100917.66;5018722;28;20032;-75
2021/04/04 03:20:46;;;;;;;13.43;9.35;;;;;;;10.43;100.00;100916.16;5033751;28;20022;-75
2021/04/04 03:23:32;;;;;;;13.02;9.60;;;;;;;10.30;100.00;100922.47;5033814;28;20039;-74
2021/04/04 03:26:19;;;;;;;11.65;9.30;;;;;;;9.93;100.00;100924.63;5033552;28;20033;-75
2021/04/04 03:29:07;;;;;;;13.45;9.57;;;;;;;10.05;100.00;100918.44;5032936;28;20025;-75
2021/04/04 03:31:53;;;;;;;13.52;9.18;;;;;;;9.96;100.00;100915.88;5033417;28;20029;-74
2021/04/04 03:34:40;;;;;;;12.07;8.82;;;;;;;10.35;100.00;100930.25;5019104;28;20029;-75
2021/04/04 03:37:27;;;;;;;12.80;9.32;;;;;;;10.15;100.00;100927.88;5033995;28;20088;-75
2021/04/04 03:40:13;;;;;;;12.27;9.43;;;;;;;10.29;100.00;100930.34;5019099;28;20025;-74
2021/04/04 03:43:05;;;;;;;12.73;9.40;;;;;;;10.45;100.00;100937.94;5018919;28;20112;-74
2021/04/04 03:45:58;;;;;;;12.98;9.73;;;;;;;10.61;100.00;100934.22;5033853;28;20449;-75
2021/04/04 03:48:45;;;;;;;13.00;9.68;;;;;;;10.41;100.00;100936.25;5032843;28;20037;-75
2021/04/04 03:51:31;;;;;;;13.13;9.95;;;;;;;10.28;100.00;100939.94;5033174;28;20465;-75
2021/04/04 03:54:18;;;;;;;12.60;9.88;;;;;;;10.30;100.00;100937.28;5019121;28;20544;-75
2021/04/04 03:57:06;;;;;;;14.07;10.00;;;;;;;10.36;100.00;100947.72;5019464;28;20025;-75
2021/04/04 03:59:54;;;;;;;14.23;10.02;;;;;;;10.27;100.00;100945.19;5020574;28;20091;-74
2021/04/04 04:02:41;;;;;;;14.05;10.65;;;;;;;10.45;100.00;100952.81;5021973;28;20046;-75
2021/04/04 04:05:27;;;;;;;13.82;10.43;;;;;;;10.24;100.00;100946.09;5022486;28;20043;-75
2021/04/04 04:08:18;;;;;;;14.70;10.65;;;;;;;10.30;100.00;100953.88;5037566;28;20171;-75
2021/04/04 04:11:07;;;;;;;15.23;10.63;;;;;;;10.36;100.00;100951.19;5036790;28;20473;-76
2021/04/04 04:13:54;;;;;;;15.25;10.82;;;;;;;10.06;100.00;100962.03;5036883;28;20520;-75
2021/04/04 04:16:41;;;;;;;15.70;10.73;;;;;;;10.42;100.00;100972.06;5021981;28;20033;-76
2021/04/04 04:19:27;;;;;;;16.13;11.10;;;;;;;10.61;100.00;100968.28;5037418;28;20097;-75
2021/04/04 04:22:13;;;;;;;14.60;10.50;;;;;;;10.46;100.00;100965.91;5037001;28;20190;-75
2021/04/04 04:25:00;;;;;;;15.25;10.75;;;;;;;10.52;100.00;100983.28;5036701;28;20358;-75
2021/04/04 04:27:47;;;;;;;17.17;10.88;;;;;;;10.62;100.00;100969.19;5037158;28;20108;-75
2021/04/04 04:30:33;;;;;;;16.35;11.50;;;;;;;10.37;100.00;100971.22;5021759;28;20112;-75
2021/04/04 04:33:21;;;;;;;18.63;12.68;;;;;;;10.16;100.00;100973.28;5022328;28;20017;-75
2021/04/04 04:36:09;;;;;;;17.17;11.85;;;;;;;10.20;100.00;100977.59;5035949;28;20025;-74
2021/04/04 04:38:56;;;;;;;17.15;12.45;;;;;;;10.03;100.00;100982.97;5036672;28;20352;-75
2021/04/04 04:41:45;;;;;;;17.25;12.52;;;;;;;10.50;100.00;100993.78;5036806;28;20183;-74
2021/04/04 04:44:33;;;;;;;19.13;12.55;;;;;;;10.25;100.00;100986.25;5035859;28;20063;-76
2021/04/04 04:47:19;;;;;;;17.17;11.55;;;;;;;9.57;100.00;100986.94;5022750;28;20067;-75
2021/04/04 04:50:06;;;;;;;17.90;12.77;;;;;;;9.93;100.00;100990.06;5021779;28;20458;-75
2021/04/04 04:52:55;;;;;;;21.92;13.35;;;;;;;10.07;100.00;100987.31;5035550;28;20323;-75
2021/04/04 04:55:43;;;;;;;18.27;13.02;;;;;;;9.94;100.00;100989.16;5036214;28;20477;-74
2021/04/04 04:58:31;;;;;;;15.95;12.15;;;;;;;10.08;100.00;100991.66;5021754;28;20461;-75
2021/04/04 05:01:20;;;;;;;19.08;13.10;;;;;;;10.33;100.00;100994.88;5036039;28;20375;-75
2021/04/04 05:04:06;;;;;;;16.73;12.00;;;;;;;10.64;100.00;100997.09;5036368;28;20143;-75
2021/04/04 05:06:52;;;;;;;19.08;12.90;;;;;;;10.35;100.00;100993.09;5036704;28;20035;-75
2021/04/04 05:09:40;;;;;;;17.95;13.20;;;;;;;10.68;100.00;100998.78;5036154;28;20029;-74
2021/04/04 05:12:26;;;;;;;18.45;13.00;;;;;;;10.57;100.00;101002.44;5034555;28;20029;-74
2021/04/04 05:15:13;;;;;;;16.75;12.63;;;;;;;10.44;100.00;100998.25;5035509;28;20512;-75
2021/04/04 05:17:59;;;;;;;20.90;14.00;;;;;;;11.05;100.00;101005.22;5036354;28;20105;-75
2021/04/04 05:20:45;;;;;;;18.48;13.30;;;;;;;10.57;100.00;101007.69;5020831;28;20041;-74
2021/04/04 05:23:31;;;;;;;20.08;13.38;;;;;;;10.13;100.00;101016.06;5035831;28;20087;-75
2021/04/04 05:26:17;;;;;;;18.98;13.63;;;;;;;10.13;100.00;101010.84;5035662;28;20469;-76
2021/04/04 05:29:09;;;;;;;19.98;13.88;;;;;;;10.41;100.00;101019.22;5035621;28;20029;-75
2021/04/04 05:31:56;;;;;;;20.35;14.15;;;;;;;10.53;100.00;101016.47;5035577;28;20366;-75
2021/04/04 05:34:42;;;;;;;20.20;14.25;;;;;;;10.65;100.00;101016.31;5035754;28;20035;-75
2021/04/04 05:37:28;;;;;;;19.90;14.52;;;;;;;10.57;100.00;101012.91;5021467;28;20022;-75
2021/04/04 05:40:22;;;;;;;19.60;14.52;;;;;;;10.17;100.00;101014.28;5035556;28;20026;-74
2021/04/04 05:43:14;;;;;;;18.60;14.05;;;;;;;9.96;100.00;101020.56;5036107;28;20115;-75
2021/04/04 05:46:06;;;;;;;22.10;15.18;;;;;;;10.06;100.00;101025.72;5020777;28;20029;-75
2021/04/04 05:49:05;;;;;;;20.63;14.70;;;;;;;10.10;100.00;101026.56;5035019;28;20034;-74
2021/04/04 05:52:38;;;;;;;20.05;15.20;;;;;;;10.56;100.00;101025.13;5035758;28;20025;-75
2021/04/04 05:55:33;;;;;;;22.27;13.95;;;;;;;10.25;100.00;101028.16;5020621;28;20071;-76
2021/04/04 05:58:33;;;;;;;20.05;13.95;;;;;;;10.63;100.00;101026.81;5035304;28;20025;-74
2021/04/04 06:01:41;;;;;;;20.70;15.20;;;;;;;11.39;100.00;101010.81;5034910;28;20060;-76
2021/04/04 06:04:48;;;;;;;22.30;15.55;;;;;;;11.17;100.00;101015.53;5021897;28;20029;-76
2021/04/04 06:07:37;;;;;;;21.90;16.50;;;;;;;10.63;100.00;101026.81;5034043;28;20051;-75
2021/04/04 06:10:37;;;;;;;24.65;17.23;;;;;;;10.56;100.00;101025.13;5035301;28;20033;-74
2021/04/04 06:13:26;;;;;;;21.73;15.75;;;;;;;11.17;100.00;101031.25;5033426;28;20378;-75
2021/04/04 06:16:22;;;;;;;22.55;16.60;;;;;;;10.78;100.00;101037.09;5035069;28;20060;-75
2021/04/04 06:19:17;;;;;;;29.52;19.02;;;;;;;11.07;100.00;101039.28;5034529;28;20112;-75
2021/04/04 06:22:23;;;;;;;25.45;18.40;;;;;;;10.93;100.00;101042.09;5020507;28;20362;-75
2021/04/04 06:25:27;;;;;;;33.00;20.70;;;;;;;10.69;100.00;101045.03;5034015;28;20108;-76
2021/04/04 06:28:13;;;;;;;26.85;18.33;;;;;;;10.98;100.00;101049.91;5034488;28;20027;-75
2021/04/04 06:31:27;;;;;;;28.35;19.42;;;;;;;10.77;100.00;101040.56;5034364;28;20033;-75
2021/04/04 06:34:21;;;;;;;24.35;18.20;;;;;;;11.05;100.00;101048.94;5034834;28;20108;-76
2021/04/04 06:37:33;;;;;;;25.65;18.30;;;;;;;11.03;100.00;101053.34;5034328;28;20144;-74
2021/04/04 06:40:33;;;;;;;27.23;18.35;;;;;;;10.29;100.00;101056.88;5035053;28;20037;-75
2021/04/04 06:43:28;;;;;;;25.55;17.98;;;;;;;11.33;100.00;101059.00;5018954;28;20053;-76
2021/04/04 06:46:33;;;;;;;30.23;21.33;;;;;;;11.43;100.00;101062.34;5019263;28;20051;-76
2021/04/04 06:49:21;;;;;;;28.05;19.40;;;;;;;11.26;100.00;101059.13;5019971;28;20124;-76
2021/04/04 06:52:35;;;;;;;30.75;21.35;;;;;;;11.38;100.00;101067.69;5034562;28;20044;-76
2021/04/04 06:55:44;;;;;;;24.75;18.50;;;;;;;11.69;100.00;101060.22;5033851;28;20095;-77
2021/04/04 06:58:38;;;;;;;25.55;18.80;;;;;;;11.61;100.00;101059.50;5034641;28;20037;-76
2021/04/04 07:01:36;;;;;;;26.73;20.23;;;;;;;11.39;100.00;101066.78;5033661;28;20147;-76
2021/04/04 07:04:24;;;;;;;29.58;21.30;;;;;;;11.97;100.00;101072.84;5033972;28;20057;-75
2021/04/04 07:07:35;;;;;;;32.90;21.30;;;;;;;11.75;100.00;101075.88;5033637;28;20036;-75
2021/04/04 07:10:59;;;;;;;31.35;22.38;;;;;;;11.68;100.00;101079.47;5019064;28;20033;-76
2021/04/04 07:13:50;;;;;;;34.30;23.63;;;;;;;12.33;100.00;101085.31;5032887;28;20466;-75
2021/04/04 07:16:59;;;;;;;32.40;22.75;;;;;;;11.46;100.00;101084.19;5033750;28;20476;-75
2021/04/04 07:19:51;;;;;;;33.80;22.25;;;;;;;11.53;100.00;101083.19;5032912;28;20065;-76
2021/04/04 07:23:05;;;;;;;31.55;23.48;;;;;;;11.89;100.00;101093.13;5019713;28;20442;-75
2021/04/04 07:26:28;;;;;;;34.75;23.17;;;;;;;11.21;100.00;101097.66;4997768;28;20041;-75
2021/04/04 07:29:44;;;;;;;32.33;23.58;;;;;;;11.17;100.00;101096.81;5033572;28;20080;-76
2021/04/04 07:32:42;;;;;;;31.73;22.55;;;;;;;11.83;100.00;101103.72;5033374;28;20381;-76
2021/04/04 07:35:38;;;;;;;32.83;22.10;;;;;;;12.42;100.00;101097.44;5032192;28;20464;-76
2021/04/04 07:38:41;;;;;;;32.13;23.30;;;;;;;12.31;100.00;101102.88;5032888;28;20480;-76
2021/04/04 07:41:45;;;;;;;32.25;22.85;;;;;;;12.32;100.00;101094.09;5018698;28;20039;-75
2021/04/04 07:44:43;;;;;;;30.05;21.90;;;;;;;12.12;100.00;101096.22;5033519;28;20025;-76
2021/04/04 07:47:37;;;;;;;31.48;21.13;;;;;;;11.67;100.00;101106.63;5033555;28;20041;-76
2021/04/04 07:50:40;;;;;;;32.65;21.95;;;;;;;11.81;100.00;101108.13;5033676;28;20129;-76
2021/04/04 07:53:41;;;;;;;29.92;20.85;;;;;;;11.54;100.00;101111.13;5034157;28;20037;-74
2021/04/04 07:56:45;;;;;;;30.80;20.30;;;;;;;11.75;100.00;101116.13;5033347;28;20053;-75
2021/04/04 07:59:39;;;;;;;29.02;20.05;;;;;;;11.40;100.00;101113.13;5033531;28;20037;-74
2021/04/04 08:02:43;;;;;;;32.30;21.23;;;;;;;11.57;100.00;101120.75;5033058;28;20049;-75
2021/04/04 08:05:31;;;;;;;26.75;19.67;;;;;;;11.52;100.00;101123.44;5032847;28;20029;-75
2021/04/04 08:08:29;;;;;;;25.80;18.60;;;;;;;11.46;100.00;101131.41;5032156;28;20052;-75
2021/04/04 08:11:28;;;;;;;23.15;17.35;;;;;;;11.16;100.00;101136.19;5033500;28;20044;-75
2021/04/04 08:14:25;;;;;;;22.75;16.48;;;;;;;10.96;100.00;101139.06;5032500;28;20039;-76
2021/04/04 08:17:11;;;;;;;21.10;14.68;;;;;;;11.16;100.00;101136.19;5032703;28;20045;-74
2021/04/04 08:20:24;;;;;;;16.83;12.70;;;;;;;10.88;100.00;101135.66;5019083;28;20405;-75
2021/04/04 08:23:17;;;;;;;18.95;11.60;;;;;;;11.21;100.00;101137.84;5035489;28;20056;-75
2021/04/04 08:26:07;;;;;;;15.88;11.38;;;;;;;11.37;100.00;101144.63;5033152;28;20022;-78
2021/04/04 08:29:08;;;;;;;16.98;10.20;;;;;;;11.58;100.00;101152.19;5033409;28;20038;-75
2021/04/04 08:32:09;;;;;;;27.23;13.65;;;;;;;10.94;100.00;101151.34;5032243;28;20029;-77
2021/04/04 08:34:58;;;;;;;28.33;13.40;;;;;;;11.24;100.00;101158.81;5005541;28;20033;-76
2021/04/04 08:37:52;;;;;;;14.63;9.00;;;;;;;11.13;100.00;101157.22;5033296;28;20100;-76
2021/04/04 08:40:39;;;;;;;9.23;6.75;;;;;;;11.20;100.00;101161.47;5018939;28;20036;-76
2021/04/04 08:43:26;;;;;;;9.77;5.93;;;;;;;11.15;100.00;101153.69;5018233;28;20029;-77
2021/04/04 08:46:28;;;;;;;8.75;6.25;;;;;;;11.17;100.00;101162.38;5019578;28;20025;-76
2021/04/04 08:49:16;;;;;;;6.07;5.05;;;;;;;11.42;100.00;101160.31;5022287;28;20036;-76
2021/04/04 08:52:23;;;;;;;8.15;4.90;;;;;;;11.12;100.00;101169.47;5036554;28;20461;-76
2021/04/04 08:55:12;;;;;;;10.20;6.18;;;;;;;11.58;100.00;101164.47;5035771;28;20091;-75
2021/04/04 08:58:01;;;;;;;7.32;6.03;;;;;;;11.78;100.00;101175.56;5022573;28;20025;-74
2021/04/04 09:00:51;;;;;;;8.35;5.50;;;;;;;11.10;100.00;101180.84;5035989;28;20056;-75
2021/04/04 09:03:38;;;;;;;21.65;14.77;;;;;;;11.37;100.00;101170.88;5036657;28;20025;-76
2021/04/04 09:06:26;;;;;;;11.73;7.20;;;;;;;11.21;100.00;101179.81;5035880;28;20087;-75
2021/04/04 09:09:17;;;;;;;9.75;6.05;;;;;;;11.21;100.00;101176.34;5035901;28;20120;-75
2021/04/04 09:12:04;;;;;;;7.60;6.00;;;;;;;11.09;100.00;101168.63;5036037;28;20079;-76
2021/04/04 09:14:51;;;;;;;9.85;7.93;;;;;;;10.81;100.00;101167.22;5036588;28;20091;-76
2021/04/04 09:17:37;;;;;;;8.85;6.65;;;;;;;11.17;100.00;101167.63;5036597;28;20377;-75
2021/04/04 09:20:34;;;;;;;7.85;6.45;;;;;;;10.87;100.00;101164.53;5035923;28;20072;-76
2021/04/04 09:23:26;;;;;;;6.82;6.00;;;;;;;10.68;100.00;101166.47;5036203;28;20021;-75
2021/04/04 09:26:17;;;;;;;8.00;6.28;;;;;;;10.82;100.00;101159.34;5035515;28;20052;-74
2021/04/04 09:29:03;;;;;;;6.63;5.47;;;;;;;11.07;100.00;101162.53;5034986;28;20357;-74
2021/04/04 09:31:51;;;;;;;7.43;5.68;;;;;;;11.20;100.00;101164.97;5034306;28;20033;-75
2021/04/04 09:34:42;;;;;;;9.00;6.07;;;;;;;10.90;100.00;101154.88;5021390;28;20068;-74
2021/04/04 09:37:29;;;;;;;8.00;5.53;;;;;;;10.99;100.00;101156.50;5035135;28;20025;-75
2021/04/04 09:40:17;;;;;;;7.80;6.18;;;;;;;11.06;100.00;101156.44;5035019;28;20130;-75
2021/04/04 09:43:09;;;;;;;30.67;17.77;;;;;;;11.08;100.00;101145.91;5035265;28;20442;-75
2021/04/04 09:46:05;;;;;;;7.60;6.20;;;;;;;11.48;100.00;101142.72;5035908;28;20079;-75
2021/04/04 09:48:51;;;;;;;8.98;6.63;;;;;;;11.78;100.00;101133.56;5035132;28;20446;-75
2021/04/04 09:51:46;;;;;;;33.58;20.23;;;;;;;11.58;100.00;101139.06;5035401;28;20041;-75
2021/04/04 09:54:58;;;;;;;14.68;10.00;;;;;;;11.48;100.00;101136.59;5035026;28;20040;-75
2021/04/04 09:57:54;;;;;;;7.65;6.15;;;;;;;12.13;100.00;101123.38;5034706;28;20040;-74
2021/04/04 10:00:43;;;;;;;10.20;6.63;;;;;;;11.79;100.00;101123.06;5035330;28;20457;-75
2021/04/04 10:03:28;;;;;;;8.70;6.45;;;;;;;11.46;100.00;101118.28;5035219;28;20051;-75
2021/04/04 10:06:14;;;;;;;9.40;6.38;;;;;;;11.95;100.00;101124.53;5021329;28;20029;-76
2021/04/04 10:09:13;;;;;;;9.40;7.20;;;;;;;12.18;100.00;101117.09;5019337;28;20124;-74
2021/04/04 10:11:59;;;;;;;50.67;30.10;;;;;;;12.45;100.00;101121.00;5035499;28;20037;-75
2021/04/04 10:15:06;;;;;;;91.30;60.28;;;;;;;12.47;100.00;101125.34;5035696;28;20018;-75
2021/04/04 10:17:56;;;;;;;8.48;7.05;;;;;;;12.34;100.00;101118.56;5035145;28;20464;-76
2021/04/04 10:20:48;;;;;;;46.75;28.05;;;;;;;12.32;100.00;101115.13;5020230;28;20025;-74
2021/04/04 10:23:34;;;;;;;31.90;16.95;;;;;;;12.39;100.00;101114.13;5020322;28;20148;-75
2021/04/04 10:26:22;;;;;;;11.63;8.80;;;;;;;11.96;100.00;101118.38;5034554;28;20029;-76
2021/04/04 10:29:22;;;;;;;11.95;9.85;;;;;;;11.91;100.00;101111.47;5033921;28;20033;-74
2021/04/04 10:32:08;;;;;;;19.45;16.20;;;;;;;11.86;100.00;101115.94;5034235;28;20028;-74
2021/04/04 10:34:54;;;;;;;9.85;7.13;;;;;;;11.74;100.00;101106.47;5034493;28;20040;-74
2021/04/04 10:37:40;;;;;;;17.25;14.55;;;;;;;11.62;100.00;101106.69;5034215;28;20112;-74
2021/04/04 10:40:39;;;;;;;18.48;8.85;;;;;;;12.14;100.00;101099.66;5034515;28;20041;-74
2021/04/04 10:43:38;;;;;;;8.68;7.00;;;;;;;12.09;100.00;101106.78;5034573;28;20025;-74
2021/04/04 10:46:26;;;;;;;8.98;6.75;;;;;;;11.96;100.00;101105.25;5034222;28;20065;-74
2021/04/04 10:49:13;;;;;;;8.85;6.85;;;;;;;11.54;100.00;101102.41;5033986;28;20087;-75
2021/04/04 10:51:59;;;;;;;8.93;6.68;;;;;;;12.11;100.00;101101.50;5034043;28;20124;-74
2021/04/04 10:54:45;;;;;;;57.47;43.83;;;;;;;12.11;100.00;101097.13;5033939;28;20036;-74
2021/04/04 10:57:32;;;;;;;12.70;9.02;;;;;;;12.11;100.00;101102.38;5034330;28;20071;-74
2021/04/04 11:00:18;;;;;;;20.45;10.88;;;;;;;12.05;100.00;101102.47;5034040;28;20026;-74
2021/04/04 11:03:05;;;;;;;11.85;9.68;;;;;;;12.10;100.00;101099.78;5033681;28;20123;-75
2021/04/04 11:05:51;;;;;;;11.05;8.48;;;;;;;11.90;100.00;101107.97;5034214;28;20493;-75
2021/04/04 11:08:39;;;;;;;8.98;7.10;;;;;;;11.77;100.00;101103.81;5020877;28;20493;-75
2021/04/04 11:11:26;;;;;;;34.42;23.83;;;;;;;11.75;100.00;101108.25;5020048;28;20036;-76
2021/04/04 11:14:12;;;;;;;9.45;7.63;;;;;;;11.87;100.00;101112.41;5032993;28;20405;-75
2021/04/04 11:17:00;;;;;;;10.13;7.63;;;;;;;11.07;100.00;101107.47;5033822;28;20034;-75
2021/04/04 11:19:49;;;;;;;12.95;8.18;;;;;;;11.29;100.00;101103.69;5034034;28;20021;-75
2021/04/04 11:22:35;;;;;;;9.35;7.63;;;;;;;11.31;100.00;101108.00;5033793;28;20032;-76
2021/04/04 11:25:29;;;;;;;10.77;7.97;;;;;;;11.74;100.00;101109.09;5033315;28;20033;-76
2021/04/04 11:28:24;;;;;;;10.48;8.20;;;;;;;11.56;100.00;101101.50;5033573;28;20116;-74
2021/04/04 11:31:24;;;;;;;11.70;9.02;;;;;;;11.41;100.00;101098.25;5032849;28;20108;-74
2021/04/04 11:34:38;;;;;;;11.63;9.63;;;;;;;11.61;100.00;101104.94;5033843;28;20033;-74
2021/04/04 11:37:26;;;;;;;12.57;9.88;;;;;;;11.57;100.00;101097.13;5033736;28;20025;-75
2021/04/04 11:40:25;;;;;;;13.20;10.10;;;;;;;11.64;100.00;101093.53;5032859;28;20017;-75
2021/04/04 11:43:26;;;;;;;9.75;8.57;;;;;;;12.00;100.00;101095.56;5033127;28;20055;-75
2021/04/04 11:46:51;;;;;;;14.65;9.65;;;;;;;11.22;100.00;101102.03;5032948;28;20091;-75
2021/04/04 11:49:57;;;;;;;12.32;9.30;;;;;;;11.47;100.00;101106.91;4934715;29;20036;-75
2021/04/04 11:52:43;;;;;;;12.88;9.10;;;;;;;11.17;100.00;101109.94;5032847;28;20095;-75
2021/04/04 11:55:47;;;;;;;17.17;14.48;;;;;;;11.23;100.00;101117.75;5033754;28;20021;-76
2021/04/04 11:58:34;;;;;;;21.20;16.23;;;;;;;11.03;100.00;101111.00;5033367;28;20442;-74
2021/04/04 12:01:19;;;;;;;12.95;8.48;;;;;;;11.48;100.00;101116.50;5018488;28;20136;-74
2021/04/04 12:04:23;;;;;;;12.95;9.55;;;;;;;11.33;100.00;101111.47;5033892;28;20112;-75
2021/04/04 12:07:15;;;;;;;14.25;9.90;;;;;;;11.50;100.00;101119.09;5033741;28;20021;-74
2021/04/04 12:10:01;;;;;;;10.85;8.77;;;;;;;11.86;100.00;101110.69;5033527;28;20526;-74
2021/04/04 12:12:48;;;;;;;12.02;9.93;;;;;;;11.83;100.00;101111.63;5032816;28;20112;-75
2021/04/04 12:15:34;;;;;;;11.50;9.02;;;;;;;12.05;100.00;101109.50;5033323;28;20102;-75
2021/04/04 12:18:19;;;;;;;11.43;9.02;;;;;;;11.74;100.00;101103.00;5033288;28;20029;-75
2021/04/04 12:21:05;;;;;;;12.45;9.63;;;;;;;11.72;100.00;101105.66;5034144;28;20361;-76
2021/04/04 12:23:54;;;;;;;13.70;11.18;;;;;;;11.72;100.00;101099.53;5036826;28;20060;-74
2021/04/04 12:26:40;;;;;;;13.07;10.30;;;;;;;11.50;100.00;101098.13;5036659;28;20040;-74
2021/04/04 12:29:25;;;;;;;12.70;10.02;;;;;;;11.41;100.00;101099.09;5036918;28;20362;-74
2021/04/04 12:32:38;;;;;;;14.85;12.10;;;;;;;11.12;100.00;101096.03;5035975;28;20108;-74
2021/04/04 12:35:23;;;;;;;67.70;52.63;;;;;;;11.05;100.00;101096.16;5037906;28;20493;-73
2021/04/04 12:38:22;;;;;;;34.78;25.52;;;;;;;10.60;100.00;101105.44;5020829;28;20040;-76
2021/04/04 12:41:08;;;;;;;12.25;9.48;;;;;;;10.75;100.00;101104.38;5036710;28;20057;-74
2021/04/04 12:43:54;;;;;;;35.20;26.85;;;;;;;10.69;100.00;101105.31;5036477;28;20036;-75
2021/04/04 12:46:39;;;;;;;10.73;8.95;;;;;;;10.97;100.00;101100.63;5036042;28;20462;-74
2021/04/04 12:49:25;;;;;;;31.27;23.08;;;;;;;11.05;100.00;101090.91;5021670;28;20025;-75
2021/04/04 12:52:11;;;;;;;14.50;11.02;;;;;;;10.93;100.00;101106.78;5036423;28;20034;-74
2021/04/04 12:55:13;;;;;;;21.05;15.07;;;;;;;10.95;100.00;101110.25;5035757;28;20465;-75
2021/04/04 12:58:00;;;;;;;17.98;12.85;;;;;;;10.33;100.00;101112.72;5035678;28;20504;-75